Time;durP1;ratioP1;P1;durP2;ratioP2;P2;SDS_P1;SDS_P2;PMS_P1;PMS_P2;Temp;Humidity;BMP_temperature;BMP_pressure;BME280_temperature;BME280_humidity;BME280_pressure;Samples;Min_cycle;Max_cycle;Signal;HPM_P1;HPM_P2
2021/03/11 00:06:58;;;;;;;;;;;;;;;;;;20803755;28;1910;-35
2021/03/11 00:17:18;;;;;;;;;;;;;;;;;;20787065;28;1369;-35
2021/03/11 00:27:40;;;;;;;;;;;;;;;;;;20786539;28;1902;-35
2021/03/11 00:38:00;;;;;;;;;;;;;;;;;;20800447;28;1899;-34
2021/03/11 00:48:35;;;;;;;;;;;;;;;;;;20802010;28;1217;-34
2021/03/11 00:58:55;;;;;;;;;;;;;;;;;;20841080;28;1989;-34
2021/03/11 01:09:16;;;;;;;;;;;;;;;;;;20964307;28;1232;-35
2021/03/11 01:19:37;;;;;;;;;;;;;;;;;;20993552;28;1902;-34
2021/03/11 01:30:13;;;;;;;;;;;;;;;;;;20933828;28;1191;-35
2021/03/11 01:40:33;;;;;;;;;;;;;;;;;;20897350;28;1977;-34
2021/03/11 01:51:08;;;;;;;;;;;;;;;;;;20895953;28;1185;-34
2021/03/11 02:01:28;;;;;;;;;;;;;;;;;;20937811;28;1902;-34
2021/03/11 02:12:07;;;;;;;;;;;;;;;;;;20989337;28;1100;-34
2021/03/11 02:22:43;;;;;;;;;;;;;;;;;;20959738;28;1898;-35
2021/03/11 02:33:18;;;;;;;;;;;;;;;;;;20945532;28;1128;-34
2021/03/11 02:43:53;;;;;;;;;;;;;;;;;;20890319;28;1902;-35
2021/03/11 02:54:29;;;;;;;;;;;;;;;;;;20902343;28;1189;-34
2021/03/11 03:04:53;;;;;;;;;;;;;;;;;;20875016;28;1902;-33
2021/03/11 03:15:29;;;;;;;;;;;;;;;;;;20888026;28;1097;-34
2021/03/11 03:25:50;;;;;;;;;;;;;;;;;;20871833;28;1898;-34
2021/03/11 03:36:25;;;;;;;;;;;;;;;;;;20885732;28;1310;-34
2021/03/11 03:46:46;;;;;;;;;;;;;;;;;;20886708;28;1981;-34
2021/03/11 03:57:13;;;;;;;;;;;;;;;;;;20877147;28;1507;-35
2021/03/11 04:07:34;;;;;;;;;;;;;;;;;;20952550;28;1993;-34
2021/03/11 04:17:56;;;;;;;;;;;;;;;;;;20967871;28;1082;-34
2021/03/11 04:28:17;;;;;;;;;;;;;;;;;;20936298;28;1348;-34
2021/03/11 04:38:38;;;;;;;;;;;;;;;;;;20895775;28;1918;-42
2021/03/11 04:49:13;;;;;;;;;;;;;;;;;;20868878;28;1240;-42
2021/03/11 04:59:48;;;;;;;;;;;;;;;;;;20938983;28;1906;-43
2021/03/11 05:10:23;;;;;;;;;;;;;;;;;;20990989;28;1101;-42
2021/03/11 05:20:44;;;;;;;;;;;;;;;;;;20992430;28;1910;-42
2021/03/11 05:31:04;;;;;;;;;;;;;;;;;;20982431;28;1336;-42
2021/03/11 05:41:40;;;;;;;;;;;;;;;;;;20892981;28;1987;-42
2021/03/11 05:52:15;;;;;;;;;;;;;;;;;;20900438;28;1275;-42
2021/03/11 06:02:36;;;;;;;;;;;;;;;;;;20943685;28;2023;-42
2021/03/11 06:12:58;;;;;;;;;;;;;;;;;;20946943;28;1180;-42
2021/03/11 06:23:18;;;;;;;;;;;;;;;;;;20976482;28;1902;-42
2021/03/11 06:33:39;;;;;;;;;;;;;;;;;;20886813;28;1229;-42
2021/03/11 06:44:01;;;;;;;;;;;;;;;;;;20889898;28;2028;-42
2021/03/11 06:54:52;;;;;;;;;;;;;;;;;;20876893;28;1531;-42
2021/03/11 07:05:13;;;;;;;;;;;;;;;;;;20872908;28;1902;-43
2021/03/11 07:15:55;;;;;;;;;;;;;;;;;;20882348;28;2603;-42
2021/03/11 07:26:29;;;;;;;;;;;;;;;;;;20876727;28;1918;-43
2021/03/11 07:36:51;;;;;;;;;;;;;;;;;;20873008;28;1152;-43
2021/03/11 07:47:26;;;;;;;;;;;;;;;;;;20876481;28;1980;-43
2021/03/11 07:58:08;;;;;;;;;;;;;;;;;;20889784;28;1266;-44
2021/03/11 08:08:29;;;;;;;;;;;;;;;;;;20869754;28;1045;-43
2021/03/11 08:18:51;;;;;;;;;;;;;;;;;;20881448;28;1902;-43
2021/03/11 08:29:15;;;;;;;;;;;;;;;;;;20867760;28;1417;-44
2021/03/11 08:39:50;;;;;;;;;;;;;;;;;;20893336;28;1901;-43
2021/03/11 08:50:30;;;;;;;;;;;;;;;;;;20883181;28;1327;-43
2021/03/11 09:00:58;;;;;;;;;;;;;;;;;;20902934;28;1909;-43
2021/03/11 09:11:22;;;;;;;;;;;;;;;;;;20962736;28;1097;-43
2021/03/11 09:21:44;;;;;;;;;;;;;;;;;;20920816;28;1902;-43
2021/03/11 09:32:05;;;;;;;;;;;;;;;;;;20957670;28;1254;-43
2021/03/11 09:42:26;;;;;;;;;;;;;;;;;;20811666;28;1902;-43
2021/03/11 09:52:54;;;;;;;;;;;;;;;;;;20796499;28;1071;-43
2021/03/11 10:03:29;;;;;;;;;;;;;;;;;;20928258;28;1987;-43
2021/03/11 10:13:51;;;;;;;;;;;;;;;;;;20976215;28;1168;-43
2021/03/11 10:24:49;;;;;;;;;;;;;;;;;;20975875;28;1890;-42
2021/03/11 10:35:12;;;;;;;;;;;;;;;;;;20910259;28;1236;-43
2021/03/11 10:45:38;;;;;;;;;;;;;;;;;;20874987;28;1894;-43
2021/03/11 10:56:14;;;;;;;;;;;;;;;;;;20850250;28;1127;-45
2021/03/11 11:06:35;;;;;;;;;;;;;;;;;;20790819;28;1997;-43
2021/03/11 11:16:56;;;;;;;;;;;;;;;;;;20790601;28;1360;-42
2021/03/11 11:27:16;;;;;;;;;;;;;;;;;;20805865;28;1992;-43
2021/03/11 11:37:37;;;;;;;;;;;;;;;;;;20870336;28;1191;-43
2021/03/11 11:48:11;;;;;;;;;;;;;;;;;;20886537;28;1902;-42
2021/03/11 11:58:44;;;;;;;;;;;;;;;;;;20904769;28;1222;-43
2021/03/11 12:09:19;;;;;;;;;;;;;;;;;;20977769;28;1083;-42
2021/03/11 12:19:39;;;;;;;;;;;;;;;;;;20967308;28;1902;-43
2021/03/11 12:30:02;;;;;;;;;;;;;;;;;;20959732;28;1272;-43
2021/03/11 12:40:37;;;;;;;;;;;;;;;;;;20862526;28;1910;-43
2021/03/11 12:51:12;;;;;;;;;;;;;;;;;;20881869;28;1427;-43
2021/03/11 13:01:33;;;;;;;;;;;;;;;;;;20933600;28;1926;-42
2021/03/11 13:12:08;;;;;;;;;;;;;;;;;;20893550;28;1123;-42
2021/03/11 13:22:43;;;;;;;;;;;;;;;;;;20896356;28;2236;-43
2021/03/11 13:33:04;;;;;;;;;;;;;;;;;;20897113;28;1349;-43
2021/03/11 13:43:25;;;;;;;;;;;;;;;;;;20895012;28;1906;-42
2021/03/11 13:53:45;;;;;;;;;;;;;;;;;;20880299;28;1185;-43
2021/03/11 14:04:06;;;;;;;;;;;;;;;;;;20957238;28;1902;-43
2021/03/11 14:14:27;;;;;;;;;;;;;;;;;;20946635;28;1216;-42
2021/03/11 14:24:51;;;;;;;;;;;;;;;;;;20973670;28;1898;-45
2021/03/11 14:35:12;;;;;;;;;;;;;;;;;;20922250;28;2216;-43
2021/03/11 14:45:37;;;;;;;;;;;;;;;;;;20870576;28;2001;-43
2021/03/11 14:56:12;;;;;;;;;;;;;;;;;;20879460;28;1123;-43
2021/03/11 15:06:47;;;;;;;;;;;;;;;;;;20797071;28;1922;-43
2021/03/11 15:17:22;;;;;;;;;;;;;;;;;;20813591;28;1451;-43
2021/03/11 15:27:43;;;;;;;;;;;;;;;;;;20859550;28;1910;-42
2021/03/11 15:38:05;;;;;;;;;;;;;;;;;;20547943;28;9999819;-43
2021/03/11 15:48:40;;;;;;;;;;;;;;;;;;20916468;28;1906;-44
2021/03/11 15:59:15;;;;;;;;;;;;;;;;;;20882424;28;1981;-44
2021/03/11 16:09:36;;;;;;;;;;;;;;;;;;20918276;28;1279;-44
2021/03/11 16:19:56;;;;;;;;;;;;;;;;;;20945108;28;1971;-44
2021/03/11 16:30:32;;;;;;;;;;;;;;;;;;20948125;28;2568;-43
2021/03/11 16:41:08;;;;;;;;;;;;;;;;;;20857349;28;1879;-44
2021/03/11 16:51:43;;;;;;;;;;;;;;;;;;20788186;28;1021;-44
2021/03/11 17:02:03;;;;;;;;;;;;;;;;;;20880984;28;1981;-44
2021/03/11 17:12:24;;;;;;;;;;;;;;;;;;20869417;28;1122;-43
2021/03/11 17:22:59;;;;;;;;;;;;;;;;;;20869385;28;1906;-44
2021/03/11 17:33:20;;;;;;;;;;;;;;;;;;20854180;28;2259;-44
2021/03/11 17:43:40;;;;;;;;;;;;;;;;;;20889859;28;1906;-44
2021/03/11 17:54:15;;;;;;;;;;;;;;;;;;20889494;28;1079;-45
2021/03/11 18:04:36;;;;;;;;;;;;;;;;;;20952146;28;1995;-44
2021/03/11 18:14:57;;;;;;;;;;;;;;;;;;20955472;28;1418;-45
2021/03/11 18:25:18;;;;;;;;;;;;;;;;;;20946733;28;1986;-45
2021/03/11 18:35:53;;;;;;;;;;;;;;;;;;20957935;28;2812;-44
2021/03/11 18:46:14;;;;;;;;;;;;;;;;;;20865277;28;1906;-44
2021/03/11 18:56:49;;;;;;;;;;;;;;;;;;20881040;28;1285;-44
2021/03/11 19:07:24;;;;;;;;;;;;;;;;;;20899792;28;1902;-43
2021/03/11 19:17:45;;;;;;;;;;;;;;;;;;20881210;28;1174;-43
2021/03/11 19:28:08;;;;;;;;;;;;;;;;;;20884344;28;1898;-37
2021/03/11 19:38:29;;;;;;;;;;;;;;;;;;20876467;28;1164;-41
2021/03/11 19:49:04;;;;;;;;;;;;;;;;;;20874084;28;1923;-64
2021/03/11 19:59:25;;;;;;;;;;;;;;;;;;20906975;28;1451;-46
2021/03/11 20:09:46;;;;;;;;;;;;;;;;;;20883744;28;1076;-40
2021/03/11 20:20:23;;;;;;;;;;;;;;;;;;20872615;28;1902;-49
2021/03/11 20:30:58;;;;;;;;;;;;;;;;;;20885133;28;1248;-56
2021/03/11 20:41:34;;;;;;;;;;;;;;;;;;20906537;28;1989;-49
2021/03/11 20:51:55;;;;;;;;;;;;;;;;;;20896177;28;1095;-63
2021/03/11 21:02:29;;;;;;;;;;;;;;;;;;20882549;28;1906;-67
2021/03/11 21:13:05;;;;;;;;;;;;;;;;;;20867643;28;1297;-62
2021/03/11 21:23:39;;;;;;;;;;;;;;;;;;20893045;28;1907;-60
2021/03/11 21:34:00;;;;;;;;;;;;;;;;;;20898780;28;1120;-66
2021/03/11 21:44:35;;;;;;;;;;;;;;;;;;20881577;28;1914;-60
2021/03/11 21:55:11;;;;;;;;;;;;;;;;;;20894103;28;1138;-60
2021/03/11 22:05:32;;;;;;;;;;;;;;;;;;20825636;28;1906;-61
2021/03/11 22:15:52;;;;;;;;;;;;;;;;;;20871932;28;1423;-62
2021/03/11 22:26:27;;;;;;;;;;;;;;;;;;20904404;28;1887;-61
2021/03/11 22:36:48;;;;;;;;;;;;;;;;;;20915206;28;1239;-61
2021/03/11 22:47:08;;;;;;;;;;;;;;;;;;20974025;28;1902;-59
2021/03/11 22:57:29;;;;;;;;;;;;;;;;;;20935692;28;1377;-60
2021/03/11 23:08:04;;;;;;;;;;;;;;;;;;20877668;28;1898;-60
2021/03/11 23:18:25;;;;;;;;;;;;;;;;;;20888224;28;2115;-58
2021/03/11 23:29:00;;;;;;;;;;;;;;;;;;20873362;28;1910;-58
2021/03/11 23:39:20;;;;;;;;;;;;;;;;;;20889234;28;1224;-60
2021/03/11 23:49:41;;;;;;;;;;;;;;;;;;20870424;28;1938;-62
